sensor_id;sensor_type;location;lat;lon;timestamp;P1;durP1;ratioP1;P2;durP2;ratioP2
29254;SDS011;16277;48.890;2.306;2023-11-19T00:12:03;5.20;;;1.37;;
29254;SDS011;16277;48.890;2.306;2023-11-19T00:27:08;0.90;;;0.90;;
29254;SDS011;16277;48.890;2.306;2023-11-19T00:42:12;1.47;;;1.13;;
29254;SDS011;16277;48.890;2.306;2023-11-19T00:57:17;5.13;;;0.90;;
29254;SDS011;16277;48.890;2.306;2023-11-19T01:12:22;5.63;;;0.87;;
29254;SDS011;16277;48.890;2.306;2023-11-19T01:27:26;1.80;;;0.80;;
29254;SDS011;16277;48.890;2.306;2023-11-19T01:42:30;5.53;;;1.37;;
29254;SDS011;16277;48.890;2.306;2023-11-19T01:57:40;4.47;;;0.73;;
29254;SDS011;16277;48.890;2.306;2023-11-19T02:12:45;1.50;;;1.17;;
29254;SDS011;16277;48.890;2.306;2023-11-19T02:27:51;8.83;;;1.43;;
29254;SDS011;16277;48.890;2.306;2023-11-19T02:42:59;6.30;;;1.30;;
29254;SDS011;16277;48.890;2.306;2023-11-19T02:58:08;7.50;;;2.20;;
29254;SDS011;16277;48.890;2.306;2023-11-19T03:13:19;5.20;;;1.97;;
29254;SDS011;16277;48.890;2.306;2023-11-19T03:28:29;7.13;;;1.90;;
29254;SDS011;16277;48.890;2.306;2023-11-19T03:43:34;5.97;;;1.70;;
29254;SDS011;16277;48.890;2.306;2023-11-19T03:58:38;4.43;;;2.13;;
29254;SDS011;16277;48.890;2.306;2023-11-19T04:13:43;6.43;;;2.57;;
29254;SDS011;16277;48.890;2.306;2023-11-19T04:28:47;4.77;;;2.27;;
29254;SDS011;16277;48.890;2.306;2023-11-19T04:43:55;8.03;;;2.27;;
29254;SDS011;16277;48.890;2.306;2023-11-19T04:59:01;6.00;;;2.57;;
29254;SDS011;16277;48.890;2.306;2023-11-19T05:14:05;9.93;;;3.37;;
29254;SDS011;16277;48.890;2.306;2023-11-19T05:29:10;5.57;;;3.17;;
29254;SDS011;16277;48.890;2.306;2023-11-19T05:44:14;15.47;;;2.67;;
29254;SDS011;16277;48.890;2.306;2023-11-19T05:59:19;5.67;;;2.50;;
29254;SDS011;16277;48.890;2.306;2023-11-19T06:14:25;12.77;;;3.53;;
29254;SDS011;16277;48.890;2.306;2023-11-19T06:29:30;10.47;;;3.87;;
29254;SDS011;16277;48.890;2.306;2023-11-19T06:44:34;11.30;;;3.70;;
29254;SDS011;16277;48.890;2.306;2023-11-19T06:59:38;19.17;;;4.93;;
29254;SDS011;16277;48.890;2.306;2023-11-19T07:14:43;14.60;;;4.07;;
29254;SDS011;16277;48.890;2.306;2023-11-19T07:29:48;17.40;;;5.57;;
29254;SDS011;16277;48.890;2.306;2023-11-19T07:44:52;17.77;;;4.80;;
29254;SDS011;16277;48.890;2.306;2023-11-19T07:59:58;31.93;;;5.67;;
29254;SDS011;16277;48.890;2.306;2023-11-19T08:15:14;14.53;;;4.97;;
29254;SDS011;16277;48.890;2.306;2023-11-19T08:30:34;23.93;;;6.07;;
29254;SDS011;16277;48.890;2.306;2023-11-19T08:45:38;22.20;;;6.03;;
29254;SDS011;16277;48.890;2.306;2023-11-19T09:00:43;37.07;;;5.73;;
29254;SDS011;16277;48.890;2.306;2023-11-19T09:15:47;26.67;;;6.50;;
29254;SDS011;16277;48.890;2.306;2023-11-19T09:30:52;30.77;;;7.13;;
29254;SDS011;16277;48.890;2.306;2023-11-19T09:45:56;22.10;;;5.10;;
29254;SDS011;16277;48.890;2.306;2023-11-19T10:01:08;38.27;;;8.50;;
29254;SDS011;16277;48.890;2.306;2023-11-19T10:16:17;26.20;;;6.43;;
29254;SDS011;16277;48.890;2.306;2023-11-19T10:31:22;44.27;;;9.20;;
29254;SDS011;16277;48.890;2.306;2023-11-19T10:46:37;32.80;;;8.80;;
29254;SDS011;16277;48.890;2.306;2023-11-19T11:01:44;32.07;;;8.23;;
29254;SDS011;16277;48.890;2.306;2023-11-19T11:16:49;28.23;;;8.43;;
29254;SDS011;16277;48.890;2.306;2023-11-19T11:31:58;45.23;;;9.77;;
29254;SDS011;16277;48.890;2.306;2023-11-19T11:47:10;40.53;;;9.20;;
29254;SDS011;16277;48.890;2.306;2023-11-19T12:02:15;33.07;;;9.57;;
29254;SDS011;16277;48.890;2.306;2023-11-19T12:17:40;30.17;;;8.03;;
29254;SDS011;16277;48.890;2.306;2023-11-19T12:32:48;35.33;;;8.50;;
29254;SDS011;16277;48.890;2.306;2023-11-19T12:48:05;27.73;;;7.40;;
29254;SDS011;16277;48.890;2.306;2023-11-19T13:03:10;35.90;;;9.63;;
29254;SDS011;16277;48.890;2.306;2023-11-19T13:18:16;36.77;;;9.83;;
29254;SDS011;16277;48.890;2.306;2023-11-19T13:33:21;36.73;;;9.63;;
29254;SDS011;16277;48.890;2.306;2023-11-19T13:48:25;37.97;;;9.17;;
29254;SDS011;16277;48.890;2.306;2023-11-19T14:03:31;37.87;;;9.23;;
29254;SDS011;16277;48.890;2.306;2023-11-19T14:18:36;31.50;;;7.53;;
29254;SDS011;16277;48.890;2.306;2023-11-19T14:33:41;27.03;;;7.57;;
29254;SDS011;16277;48.890;2.306;2023-11-19T14:48:45;45.80;;;10.20;;
29254;SDS011;16277;48.890;2.306;2023-11-19T15:03:50;30.27;;;9.00;;
29254;SDS011;16277;48.890;2.306;2023-11-19T15:18:58;35.47;;;6.97;;
29254;SDS011;16277;48.890;2.306;2023-11-19T15:34:03;38.47;;;8.30;;
29254;SDS011;16277;48.890;2.306;2023-11-19T15:49:07;36.73;;;9.10;;
29254;SDS011;16277;48.890;2.306;2023-11-19T16:04:12;36.30;;;8.73;;
29254;SDS011;16277;48.890;2.306;2023-11-19T16:19:17;43.83;;;9.83;;
29254;SDS011;16277;48.890;2.306;2023-11-19T16:34:21;36.83;;;9.03;;
29254;SDS011;16277;48.890;2.306;2023-11-19T16:49:26;28.70;;;9.87;;
29254;SDS011;16277;48.890;2.306;2023-11-19T17:04:30;38.70;;;9.90;;
29254;SDS011;16277;48.890;2.306;2023-11-19T17:19:35;47.17;;;13.43;;
29254;SDS011;16277;48.890;2.306;2023-11-19T17:34:39;35.57;;;12.70;;
29254;SDS011;16277;48.890;2.306;2023-11-19T17:49:44;50.90;;;14.20;;
29254;SDS011;16277;48.890;2.306;2023-11-19T18:04:49;33.43;;;11.10;;
29254;SDS011;16277;48.890;2.306;2023-11-19T18:19:54;39.67;;;10.67;;
29254;SDS011;16277;48.890;2.306;2023-11-19T18:34:58;50.77;;;11.97;;
29254;SDS011;16277;48.890;2.306;2023-11-19T18:50:04;47.27;;;12.23;;
29254;SDS011;16277;48.890;2.306;2023-11-19T19:05:10;38.63;;;11.53;;
29254;SDS011;16277;48.890;2.306;2023-11-19T19:20:18;45.70;;;13.37;;
29254;SDS011;16277;48.890;2.306;2023-11-19T19:35:23;62.47;;;13.27;;
29254;SDS011;16277;48.890;2.306;2023-11-19T19:50:31;51.97;;;12.47;;
29254;SDS011;16277;48.890;2.306;2023-11-19T20:05:36;52.57;;;13.70;;
29254;SDS011;16277;48.890;2.306;2023-11-19T20:20:41;59.47;;;12.77;;
29254;SDS011;16277;48.890;2.306;2023-11-19T20:35:45;41.60;;;11.43;;
29254;SDS011;16277;48.890;2.306;2023-11-19T20:50:50;39.13;;;11.60;;
29254;SDS011;16277;48.890;2.306;2023-11-19T21:05:54;56.40;;;12.33;;
29254;SDS011;16277;48.890;2.306;2023-11-19T21:20:59;43.47;;;11.93;;
29254;SDS011;16277;48.890;2.306;2023-11-19T21:36:04;40.70;;;10.93;;
29254;SDS011;16277;48.890;2.306;2023-11-19T21:51:09;44.43;;;10.73;;
29254;SDS011;16277;48.890;2.306;2023-11-19T22:06:17;37.30;;;10.40;;
29254;SDS011;16277;48.890;2.306;2023-11-19T22:21:21;47.87;;;11.20;;
29254;SDS011;16277;48.890;2.306;2023-11-19T22:36:27;42.90;;;10.20;;
29254;SDS011;16277;48.890;2.306;2023-11-19T22:51:32;39.43;;;8.97;;
29254;SDS011;16277;48.890;2.306;2023-11-19T23:06:38;51.20;;;11.53;;
29254;SDS011;16277;48.890;2.306;2023-11-19T23:21:42;55.77;;;10.67;;
29254;SDS011;16277;48.890;2.306;2023-11-19T23:36:47;55.83;;;11.63;;
29254;SDS011;16277;48.890;2.306;2023-11-19T23:51:52;47.73;;;10.23;;
